Time;durP1;ratioP1;P1;durP2;ratioP2;P2;SDS_P1;SDS_P2;PMS_P1;PMS_P2;Temp;Humidity;BMP_temperature;BMP_pressure;BME280_temperature;BME280_humidity;BME280_pressure;Samples;Min_cycle;Max_cycle;Signal;HPM_P1;HPM_P2
2021/07/19 00:02:15;;;;;;;4.60;3.22;;;;;;;36.23;26.75;93693.66;5037072;28;20041;-49
2021/07/19 00:04:44;;;;;;;5.63;3.70;;;;;;;36.22;26.73;93692.16;5035972;28;20056;-48
2021/07/19 00:07:12;;;;;;;4.65;3.00;;;;;;;36.16;26.72;93700.19;5048184;28;20045;-52
2021/07/19 00:09:44;;;;;;;6.68;3.30;;;;;;;36.27;26.58;93696.94;5053058;28;20065;-50
2021/07/19 00:12:13;;;;;;;4.70;3.30;;;;;;;36.06;27.11;93691.34;5036919;28;20041;-49
2021/07/19 00:14:41;;;;;;;6.10;3.63;;;;;;;36.02;27.11;93696.22;5036770;28;20368;-49
2021/07/19 00:17:08;;;;;;;6.10;3.38;;;;;;;36.11;27.27;93682.53;5036383;28;20053;-49
2021/07/19 00:19:35;;;;;;;6.43;3.65;;;;;;;35.86;27.57;93688.50;5036645;28;20382;-48
2021/07/19 00:22:04;;;;;;;6.55;3.95;;;;;;;35.57;28.07;93688.38;5035392;28;20056;-48
2021/07/19 00:24:31;;;;;;;4.95;3.47;;;;;;;35.83;27.47;93692.16;5052187;28;20053;-50
2021/07/19 00:26:58;;;;;;;4.32;3.50;;;;;;;36.02;27.31;93690.78;5035646;28;20053;-51
2021/07/19 00:29:26;;;;;;;6.00;3.92;;;;;;;35.65;27.84;93689.53;5035890;28;20056;-48
2021/07/19 00:31:53;;;;;;;4.80;3.65;;;;;;;35.75;27.67;93696.41;5034783;28;20057;-47
2021/07/19 00:34:20;;;;;;;4.88;3.53;;;;;;;35.76;27.58;93703.34;5035549;28;20053;-48
2021/07/19 00:36:50;;;;;;;5.50;3.78;;;;;;;35.77;27.56;93696.69;5036390;28;20045;-51
2021/07/19 00:39:17;;;;;;;4.15;3.58;;;;;;;35.90;27.39;93699.19;5035781;28;20049;-49
2021/07/19 00:41:44;;;;;;;6.97;3.67;;;;;;;35.38;28.10;93695.88;5034991;28;20042;-48
2021/07/19 00:44:13;;;;;;;5.95;3.58;;;;;;;35.70;27.84;93695.09;5026559;28;20064;-49
2021/07/19 00:46:40;;;;;;;5.15;3.70;;;;;;;35.32;28.50;93687.59;5015612;28;20053;-50
2021/07/19 00:49:08;;;;;;;3.72;3.30;;;;;;;35.88;27.57;93691.50;4998411;28;20046;-50
2021/07/19 00:51:36;;;;;;;6.90;3.50;;;;;;;35.65;27.98;93689.53;4998988;28;20041;-48
2021/07/19 00:54:04;;;;;;;5.88;3.63;;;;;;;35.76;27.75;93692.47;5016373;28;20053;-47
2021/07/19 00:56:32;;;;;;;6.47;3.42;;;;;;;35.78;27.62;93695.47;4999255;28;20045;-48
2021/07/19 00:59:00;;;;;;;5.85;3.80;;;;;;;36.09;27.14;93682.25;5016538;28;20054;-50
2021/07/19 01:01:29;;;;;;;5.40;3.85;;;;;;;35.59;27.97;93692.13;4997860;28;20042;-49
2021/07/19 01:03:59;;;;;;;7.28;3.90;;;;;;;35.69;27.77;93687.41;4999028;28;20054;-47
2021/07/19 01:06:30;;;;;;;6.35;3.53;;;;;;;35.80;27.81;93690.34;4997598;28;20449;-49
2021/07/19 01:08:58;;;;;;;5.53;3.55;;;;;;;35.94;27.59;93692.38;4998554;28;20045;-48
2021/07/19 01:11:26;;;;;;;7.07;4.05;;;;;;;35.65;28.04;93690.28;4998555;28;20483;-47
2021/07/19 01:13:53;;;;;;;6.57;3.90;;;;;;;35.86;27.60;93693.94;5015012;28;20400;-50
2021/07/19 01:16:22;;;;;;;4.63;3.80;;;;;;;36.00;27.55;93698.66;5014999;28;20065;-48
2021/07/19 01:18:50;;;;;;;5.15;3.47;;;;;;;35.79;27.64;93699.72;4999124;28;20079;-49
2021/07/19 01:22:04;;;;;;;4.47;3.60;;;;;;;35.85;27.53;93697.88;5016108;28;20076;-48
2021/07/19 01:24:45;;;;;;;6.22;4.07;;;;;;;35.43;28.30;93704.16;4982671;28;20441;-48
2021/07/19 01:27:15;;;;;;;5.20;3.75;;;;;;;35.65;27.97;93700.41;4998557;28;20084;-48
2021/07/19 01:29:44;;;;;;;4.68;3.80;;;;;;;35.17;28.57;93708.50;5014831;28;20041;-49
2021/07/19 01:32:14;;;;;;;5.55;3.70;;;;;;;35.66;27.95;93704.66;4982361;28;20169;-49
2021/07/19 01:34:41;;;;;;;5.88;4.28;;;;;;;35.57;27.99;93704.69;5015665;28;20048;-51
2021/07/19 01:37:10;;;;;;;6.93;4.20;;;;;;;35.89;27.64;93714.75;4986501;28;20449;-48
2021/07/19 01:40:00;;;;;;;5.95;3.92;;;;;;;35.73;27.83;93712.44;4994765;28;20054;-48
2021/07/19 01:42:30;;;;;;;5.90;3.97;;;;;;;35.59;28.18;93713.13;4975866;28;20053;-48
2021/07/19 01:44:59;;;;;;;7.03;4.28;;;;;;;35.71;27.75;93706.72;5026061;28;20060;-51
2021/07/19 01:47:27;;;;;;;5.45;3.72;;;;;;;35.33;28.26;93713.53;5034334;28;20056;-48
2021/07/19 01:49:55;;;;;;;8.18;4.03;;;;;;;35.53;27.78;93713.00;5016093;28;20046;-48
2021/07/19 01:52:23;;;;;;;6.85;4.13;;;;;;;35.42;28.25;93697.25;5019473;28;20045;-50
2021/07/19 01:54:51;;;;;;;7.72;4.28;;;;;;;35.32;28.18;93706.59;5032801;28;20041;-48
2021/07/19 01:57:19;;;;;;;6.05;4.28;;;;;;;35.41;28.12;93703.88;5035212;28;20387;-48
2021/07/19 01:59:59;;;;;;;9.57;4.82;;;;;;;35.45;27.80;93704.47;5034263;28;20037;-50
2021/07/19 02:02:41;;;;;;;6.50;4.43;;;;;;;35.45;27.90;93704.47;5032642;28;20049;-48
2021/07/19 02:05:19;;;;;;;5.32;4.65;;;;;;;35.75;27.59;93707.28;5025247;28;20046;-48
2021/07/19 02:08:02;;;;;;;7.05;5.72;;;;;;;35.91;27.29;93708.84;5033366;28;20045;-48
2021/07/19 02:10:32;;;;;;;8.65;6.40;;;;;;;35.32;28.03;93709.31;5016602;28;20053;-48
2021/07/19 02:13:06;;;;;;;7.03;5.82;;;;;;;35.60;27.68;93720.81;5052068;28;20045;-49
2021/07/19 02:15:39;;;;;;;8.10;6.35;;;;;;;35.68;27.29;93715.81;5037175;28;20355;-50
2021/07/19 02:18:08;;;;;;;7.22;6.53;;;;;;;35.74;27.38;93713.94;5035967;28;20045;-49
2021/07/19 02:20:35;;;;;;;9.05;7.13;;;;;;;35.66;27.39;93712.78;5001383;28;20453;-51
2021/07/19 02:23:04;;;;;;;7.30;6.60;;;;;;;36.12;26.77;93713.97;5013656;28;20053;-50
2021/07/19 02:25:52;;;;;;;8.27;6.63;;;;;;;35.81;27.22;93713.59;5033858;28;20057;-51
2021/07/19 02:28:21;;;;;;;7.25;6.63;;;;;;;35.35;27.75;93710.38;5034218;28;20049;-48
2021/07/19 02:30:50;;;;;;;8.20;6.63;;;;;;;35.82;27.19;93715.09;5016886;28;20053;-49
2021/07/19 02:33:20;;;;;;;7.70;6.20;;;;;;;35.81;27.22;93716.31;5016687;28;20049;-50
2021/07/19 02:35:53;;;;;;;6.80;5.97;;;;;;;35.82;27.01;93723.25;5016909;28;20044;-48
2021/07/19 02:38:27;;;;;;;7.18;5.63;;;;;;;35.50;27.44;93714.69;5034565;28;20472;-48
2021/07/19 02:41:05;;;;;;;6.22;5.63;;;;;;;35.67;27.33;93714.31;5002299;28;20053;-48
2021/07/19 02:43:33;;;;;;;10.15;5.57;;;;;;;35.79;26.99;93716.00;5032680;28;20371;-49
2021/07/19 02:46:01;;;;;;;7.65;6.10;;;;;;;35.58;27.76;93708.91;5033561;28;20080;-48
2021/07/19 02:48:30;;;;;;;6.57;5.80;;;;;;;35.50;27.58;93730.25;5032995;28;20046;-48
2021/07/19 02:50:59;;;;;;;9.60;5.90;;;;;;;35.47;27.85;93723.03;4994978;28;20047;-50
2021/07/19 02:53:30;;;;;;;7.25;5.97;;;;;;;35.35;27.92;93726.69;5006605;28;20053;-49
2021/07/19 02:56:01;;;;;;;7.20;5.47;;;;;;;35.64;27.53;93726.81;4997570;28;20056;-48
2021/07/19 02:58:31;;;;;;;6.93;5.68;;;;;;;35.46;27.89;93735.09;5013645;28;20042;-49
2021/07/19 03:01:01;;;;;;;6.00;5.40;;;;;;;35.18;28.08;93726.31;5013777;28;20048;-48
2021/07/19 03:03:30;;;;;;;6.97;5.47;;;;;;;35.24;28.25;93730.66;5012944;28;20045;-49
2021/07/19 03:06:03;;;;;;;;;;;;;;;35.57;27.87;93735.34;5013582;28;20061;-48
2021/07/19 03:08:38;;;;;;;5.50;4.80;;;;;;;35.02;28.37;93738.28;5012962;28;19920;-48
2021/07/19 03:11:20;;;;;;;9.18;4.95;;;;;;;34.94;28.49;93745.25;5014111;28;20046;-48
2021/07/19 03:14:09;;;;;;;6.85;4.45;;;;;;;35.06;28.29;93732.69;5032763;28;20053;-50
2021/07/19 03:16:37;;;;;;;8.82;4.55;;;;;;;35.05;28.33;93745.50;5033428;28;20052;-47
2021/07/19 03:19:09;;;;;;;7.00;3.95;;;;;;;35.07;28.27;93745.03;5009081;28;20054;-55
2021/07/19 03:21:39;;;;;;;5.95;4.07;;;;;;;35.15;28.20;93754.38;4997066;28;20046;-53
2021/07/19 03:24:14;;;;;;;4.40;4.00;;;;;;;35.19;28.17;93749.53;5015259;28;20053;-47
2021/07/19 03:26:43;;;;;;;6.25;4.55;;;;;;;35.41;27.68;93752.78;5033216;28;20053;-50
2021/07/19 03:29:13;;;;;;;6.93;3.95;;;;;;;35.23;28.06;93741.97;5033277;28;20053;-51
2021/07/19 03:31:51;;;;;;;7.07;4.30;;;;;;;35.22;27.88;93751.34;5030709;28;20061;-48
2021/07/19 03:34:21;;;;;;;5.55;4.32;;;;;;;35.70;27.27;93756.88;5016823;28;20486;-49
2021/07/19 03:36:52;;;;;;;6.93;4.30;;;;;;;35.51;27.66;93762.38;5016715;28;20056;-49
2021/07/19 03:39:21;;;;;;;7.38;4.53;;;;;;;35.63;27.60;93763.38;5016212;28;20291;-49
2021/07/19 03:42:00;;;;;;;6.10;4.28;;;;;;;35.07;28.48;93769.50;5016330;28;20046;-49
2021/07/19 03:44:29;;;;;;;7.40;4.65;;;;;;;35.59;27.35;93764.75;5020192;28;20054;-48
2021/07/19 03:46:58;;;;;;;7.05;4.45;;;;;;;35.36;28.01;93772.41;5020371;28;20447;-49
2021/07/19 03:49:26;;;;;;;6.18;4.50;;;;;;;35.54;27.65;93766.91;5023847;28;20046;-48
2021/07/19 03:51:54;;;;;;;5.75;4.38;;;;;;;35.80;27.49;93771.88;5007654;28;20482;-49
2021/07/19 03:54:22;;;;;;;5.07;4.40;;;;;;;35.37;28.07;93773.91;5036087;28;20360;-49
2021/07/19 03:56:50;;;;;;;7.68;4.40;;;;;;;35.40;28.01;93773.03;5036863;28;20053;-50
2021/07/19 03:59:20;;;;;;;6.90;4.50;;;;;;;35.48;27.72;93779.63;5036529;28;20060;-47
2021/07/19 04:01:48;;;;;;;6.60;4.95;;;;;;;35.57;27.60;93775.34;5019504;28;20052;-47
2021/07/19 04:04:30;;;;;;;5.18;4.60;;;;;;;35.22;28.41;93783.94;5036639;28;20053;-49
2021/07/19 04:07:02;;;;;;;5.38;4.88;;;;;;;35.30;28.29;93776.94;5015580;28;20046;-48
2021/07/19 04:09:31;;;;;;;6.18;5.15;;;;;;;35.27;28.20;93764.28;4981463;28;20050;-48
2021/07/19 04:11:58;;;;;;;5.13;4.63;;;;;;;35.51;28.09;93770.53;5001324;28;20053;-49
2021/07/19 04:14:25;;;;;;;6.82;4.47;;;;;;;35.27;28.52;93772.44;5036218;28;20053;-49
2021/07/19 04:16:55;;;;;;;7.15;4.63;;;;;;;35.45;28.14;93774.34;5035575;28;20052;-49
2021/07/19 04:19:23;;;;;;;5.70;5.15;;;;;;;35.24;28.59;93778.78;5023314;28;20057;-49
2021/07/19 04:21:52;;;;;;;6.50;5.18;;;;;;;34.35;29.98;93787.38;5004452;28;20049;-48
2021/07/19 04:24:26;;;;;;;7.15;5.30;;;;;;;35.17;28.85;93776.41;5035544;28;20395;-48
2021/07/19 04:26:54;;;;;;;6.22;5.43;;;;;;;35.38;28.43;93780.09;5036435;28;20049;-52
2021/07/19 04:29:23;;;;;;;7.65;5.93;;;;;;;35.57;28.26;93780.78;5027205;28;20392;-50
2021/07/19 04:31:54;;;;;;;8.18;5.63;;;;;;;35.94;27.68;93781.38;5004220;28;20053;-49
2021/07/19 04:34:33;;;;;;;6.82;5.25;;;;;;;36.01;27.57;93772.84;5036354;28;20076;-47
2021/07/19 04:37:19;;;;;;;7.22;5.85;;;;;;;35.95;27.65;93778.19;5009760;28;20061;-41
2021/07/19 04:39:49;;;;;;;7.38;4.97;;;;;;;36.15;27.40;93780.28;5010868;28;20042;-53
2021/07/19 04:42:21;;;;;;;6.25;5.40;;;;;;;36.05;27.45;93779.59;5023450;28;20053;-48
2021/07/19 04:44:48;;;;;;;7.75;5.40;;;;;;;36.17;27.26;93782.53;5036315;28;20053;-48
2021/07/19 04:47:15;;;;;;;6.18;4.90;;;;;;;36.32;27.06;93791.53;5036429;28;20049;-58
2021/07/19 04:49:42;;;;;;;6.90;5.63;;;;;;;36.17;27.26;93791.44;5027542;28;20045;-49
2021/07/19 04:52:09;;;;;;;6.72;5.32;;;;;;;36.19;27.12;93791.75;5016418;28;20057;-62
2021/07/19 04:54:38;;;;;;;6.38;5.50;;;;;;;35.98;27.20;93796.28;5015417;28;20042;-53
2021/07/19 04:57:12;;;;;;;6.88;5.35;;;;;;;36.18;27.17;93786.78;5016448;28;20050;-55
2021/07/19 04:59:44;;;;;;;6.60;5.57;;;;;;;36.18;27.08;93794.94;5015820;28;20061;-54
2021/07/19 05:02:15;;;;;;;10.13;5.68;;;;;;;36.51;26.92;93798.34;5020334;28;20048;-57
2021/07/19 05:04:44;;;;;;;13.20;5.80;;;;;;;36.60;26.69;93798.25;5034177;28;20069;-53
2021/07/19 05:07:12;;;;;;;13.75;8.95;;;;;;;36.59;27.04;93809.59;5022613;28;20046;-57
2021/07/19 05:09:41;;;;;;;8.90;5.95;;;;;;;37.19;25.61;93801.00;5012080;28;20058;-63
2021/07/19 05:12:22;;;;;;;10.43;5.90;;;;;;;36.24;26.98;93809.41;5000884;28;20472;-62
2021/07/19 05:14:49;;;;;;;7.45;5.50;;;;;;;36.62;26.20;93809.41;5015033;28;20076;-57
2021/07/19 05:17:17;;;;;;;8.32;5.78;;;;;;;36.14;27.03;93801.28;5014489;28;20515;-60
2021/07/19 05:19:45;;;;;;;7.43;6.07;;;;;;;36.26;26.84;93810.44;5023851;28;20053;-64
2021/07/19 05:22:16;;;;;;;7.93;5.75;;;;;;;37.02;25.66;93802.72;5030914;28;20046;-62
2021/07/19 05:24:44;;;;;;;6.55;5.75;;;;;;;36.51;26.52;93806.50;4995476;28;20046;-61
2021/07/19 05:27:13;;;;;;;8.55;6.32;;;;;;;37.05;25.79;93804.50;4996264;28;20046;-62
2021/07/19 05:29:42;;;;;;;11.13;6.53;;;;;;;36.96;25.98;93807.31;4996418;28;20449;-59
2021/07/19 05:32:10;;;;;;;9.45;7.00;;;;;;;36.85;25.58;93805.16;4999964;28;20053;-59
2021/07/19 05:34:37;;;;;;;10.50;6.85;;;;;;;36.87;26.06;93804.69;5015362;28;20045;-56
2021/07/19 05:37:04;;;;;;;7.20;6.50;;;;;;;37.23;25.94;93809.75;5026513;28;20045;-58
2021/07/19 05:39:32;;;;;;;9.85;7.00;;;;;;;37.19;25.93;93798.28;5035194;28;20499;-58
2021/07/19 05:41:59;;;;;;;8.45;6.35;;;;;;;37.46;25.60;93801.94;5034524;28;20057;-58
2021/07/19 05:44:26;;;;;;;8.18;6.50;;;;;;;37.13;25.60;93811.06;5015220;28;20456;-59
2021/07/19 05:46:53;;;;;;;7.05;6.22;;;;;;;37.57;25.13;93799.38;5015818;28;20056;-61
2021/07/19 05:49:20;;;;;;;10.13;6.35;;;;;;;38.12;24.71;93804.09;5003456;28;20052;-62
2021/07/19 05:51:47;;;;;;;9.77;6.38;;;;;;;37.92;25.24;93804.84;5034974;28;20460;-58
2021/07/19 05:54:16;;;;;;;11.23;6.40;;;;;;;37.57;25.39;93810.28;5033491;28;20057;-59
2021/07/19 05:56:43;;;;;;;9.52;6.90;;;;;;;37.73;24.85;93809.78;5035245;28;20432;-60
2021/07/19 05:59:10;;;;;;;6.95;6.22;;;;;;;37.55;25.33;93813.47;5017531;28;20371;-59
2021/07/19 06:01:38;;;;;;;7.60;6.80;;;;;;;38.12;24.78;93815.78;5049788;28;20049;-57
2021/07/19 06:04:05;;;;;;;7.40;6.55;;;;;;;37.09;26.14;93815.94;5024961;28;20133;-58
2021/07/19 06:06:32;;;;;;;11.20;6.95;;;;;;;37.74;25.17;93819.50;5021074;28;20053;-61
2021/07/19 06:08:59;;;;;;;8.85;7.13;;;;;;;38.12;24.99;93820.47;5033783;28;20486;-58
2021/07/19 06:11:26;;;;;;;11.13;6.82;;;;;;;38.18;24.41;93818.59;5034896;28;20042;-60
2021/07/19 06:13:53;;;;;;;7.38;6.55;;;;;;;38.36;24.62;93818.31;5033315;28;20049;-60
2021/07/19 06:16:20;;;;;;;10.05;6.20;;;;;;;38.31;24.49;93813.56;5034882;28;20440;-61
2021/07/19 06:18:47;;;;;;;9.55;6.63;;;;;;;38.68;24.28;93818.44;5031548;28;20495;-57
2021/07/19 06:21:14;;;;;;;9.80;6.88;;;;;;;38.59;23.91;93815.84;5034855;28;20056;-60
2021/07/19 06:23:41;;;;;;;10.20;6.40;;;;;;;38.56;24.58;93815.56;5034089;28;20060;-60
2021/07/19 06:26:11;;;;;;;8.77;6.32;;;;;;;38.86;23.89;93815.41;5034595;28;20054;-59
2021/07/19 06:28:38;;;;;;;13.20;6.35;;;;;;;38.95;23.39;93820.69;5034685;28;20494;-60
2021/07/19 06:31:05;;;;;;;9.23;6.38;;;;;;;38.92;23.48;93818.94;5033705;28;20053;-57
2021/07/19 06:33:32;;;;;;;7.40;6.20;;;;;;;38.25;23.99;93812.72;5033344;28;20052;-54
2021/07/19 06:35:59;;;;;;;8.90;6.07;;;;;;;37.73;24.99;93806.31;5035850;28;20041;-56
2021/07/19 06:38:27;;;;;;;9.45;6.88;;;;;;;37.59;25.56;93805.84;5018785;28;20065;-58
2021/07/19 06:40:54;;;;;;;9.32;6.65;;;;;;;37.56;25.63;93806.06;5017688;28;20045;-56
2021/07/19 06:43:21;;;;;;;7.70;6.05;;;;;;;37.59;25.02;93807.84;5031691;28;20052;-55
2021/07/19 06:45:48;;;;;;;9.00;6.45;;;;;;;38.18;24.25;93802.97;5014552;28;20061;-55
2021/07/19 06:48:17;;;;;;;12.23;6.65;;;;;;;38.40;24.14;93802.47;5013692;28;20046;-57
2021/07/19 06:50:44;;;;;;;8.63;6.57;;;;;;;38.51;24.14;93797.13;5014196;28;20045;-55
2021/07/19 06:53:11;;;;;;;10.05;6.90;;;;;;;38.18;24.17;93808.44;4995947;28;20042;-55
2021/07/19 06:55:38;;;;;;;13.43;6.97;;;;;;;37.99;24.17;93806.41;5014570;28;20057;-55
2021/07/19 06:58:05;;;;;;;7.30;6.55;;;;;;;37.97;24.19;93796.72;5013851;28;20445;-56
2021/07/19 07:00:32;;;;;;;9.38;6.70;;;;;;;37.84;24.66;93796.31;5013923;28;20053;-55
2021/07/19 07:02:59;;;;;;;10.55;6.85;;;;;;;38.40;23.88;93797.03;5014240;28;20045;-56
2021/07/19 07:05:26;;;;;;;8.23;6.28;;;;;;;38.79;23.83;93794.00;5011439;28;20084;-55
2021/07/19 07:07:53;;;;;;;9.32;6.53;;;;;;;38.48;23.94;93792.63;5015197;28;20050;-56
2021/07/19 07:10:21;;;;;;;7.68;5.93;;;;;;;38.83;23.97;93794.50;5017524;28;20046;-56
2021/07/19 07:12:48;;;;;;;7.40;6.25;;;;;;;38.74;23.82;93786.47;5017748;28;20045;-59
2021/07/19 07:15:15;;;;;;;9.00;6.30;;;;;;;39.13;23.87;93779.41;5018508;28;20046;-55
2021/07/19 07:17:42;;;;;;;8.07;5.90;;;;;;;39.08;23.43;93791.03;4996584;28;20046;-58
2021/07/19 07:20:11;;;;;;;9.38;6.03;;;;;;;39.28;23.26;93783.97;5009761;28;20453;-56
2021/07/19 07:22:38;;;;;;;7.70;5.93;;;;;;;39.45;23.25;93780.13;5016948;28;20052;-56
2021/07/19 07:25:06;;;;;;;10.95;6.13;;;;;;;40.01;22.52;93777.00;5005616;28;20058;-55
2021/07/19 07:27:34;;;;;;;9.57;6.22;;;;;;;40.43;21.78;93767.25;4998574;28;20058;-62
2021/07/19 07:30:03;;;;;;;9.55;5.75;;;;;;;40.10;22.44;93771.34;5005698;28;20053;-57
2021/07/19 07:32:30;;;;;;;10.43;6.03;;;;;;;40.52;21.60;93769.75;5015117;28;20042;-61
2021/07/19 07:34:57;;;;;;;6.72;5.55;;;;;;;40.36;21.39;93763.72;5000311;28;20046;-60
2021/07/19 07:37:24;;;;;;;10.13;5.95;;;;;;;39.68;21.62;93761.91;5016928;28;20052;-57
2021/07/19 07:39:52;;;;;;;8.30;5.90;;;;;;;39.34;22.35;93762.91;5027692;28;20048;-56
2021/07/19 07:42:19;;;;;;;7.57;5.38;;;;;;;39.24;22.13;93762.34;5017415;28;20108;-56
2021/07/19 07:44:46;;;;;;;9.32;5.28;;;;;;;39.73;22.08;93758.44;5017785;28;20057;-60
2021/07/19 07:47:13;;;;;;;8.13;6.03;;;;;;;39.83;21.76;93750.06;5018144;28;20053;-58
2021/07/19 07:49:41;;;;;;;6.28;5.63;;;;;;;40.07;22.04;93753.91;5024980;28;20045;-55
2021/07/19 07:52:09;;;;;;;7.32;5.78;;;;;;;40.12;21.47;93752.44;5025566;28;20052;-57
2021/07/19 07:54:36;;;;;;;9.18;5.95;;;;;;;39.94;21.98;93761.81;5017382;28;20046;-59
2021/07/19 07:57:03;;;;;;;7.20;5.10;;;;;;;40.17;21.33;93762.66;5017808;28;20471;-56
2021/07/19 07:59:30;;;;;;;9.65;5.95;;;;;;;40.18;21.31;93758.69;4999600;28;20385;-56
2021/07/19 08:01:58;;;;;;;6.88;5.68;;;;;;;40.12;21.81;93755.19;5007462;28;20060;-56
2021/07/19 08:04:28;;;;;;;9.10;5.85;;;;;;;40.24;21.51;93761.44;5017191;28;20049;-57
2021/07/19 08:06:56;;;;;;;8.45;5.50;;;;;;;40.27;21.67;93760.44;4999428;28;20483;-59
2021/07/19 08:09:24;;;;;;;8.15;5.85;;;;;;;40.67;21.41;93753.84;5017393;28;20054;-64
2021/07/19 08:11:51;;;;;;;10.00;5.85;;;;;;;41.13;21.26;93750.66;5016413;28;20077;-61
2021/07/19 08:14:18;;;;;;;10.05;6.07;;;;;;;40.73;21.62;93751.84;5015855;28;20046;-65
2021/07/19 08:16:45;;;;;;;9.13;5.90;;;;;;;40.83;20.50;93760.59;5000831;28;20042;-59
2021/07/19 08:19:12;;;;;;;9.55;5.25;;;;;;;40.27;20.83;93763.91;5009065;28;20052;-61
2021/07/19 08:21:41;;;;;;;6.57;4.85;;;;;;;40.39;20.57;93755.78;5016836;28;20443;-60
2021/07/19 08:24:09;;;;;;;7.03;4.88;;;;;;;40.57;20.60;93744.34;5016421;28;20046;-59
2021/07/19 08:26:37;;;;;;;6.22;5.50;;;;;;;40.80;20.48;93751.38;5017051;28;20056;-61
2021/07/19 08:29:05;;;;;;;10.40;5.40;;;;;;;40.58;20.79;93745.84;5016874;28;20046;-62
2021/07/19 08:31:33;;;;;;;7.15;5.15;;;;;;;40.83;21.09;93758.63;5012029;28;20069;-59
2021/07/19 08:34:00;;;;;;;9.27;5.28;;;;;;;41.18;19.84;93752.66;4997196;28;20046;-62
2021/07/19 08:36:27;;;;;;;6.72;5.55;;;;;;;40.61;20.52;93736.66;5003281;28;20050;-60
2021/07/19 08:38:54;;;;;;;6.50;5.18;;;;;;;40.93;20.23;93748.19;5016035;28;20045;-67
2021/07/19 08:41:21;;;;;;;8.30;5.03;;;;;;;40.40;20.94;93746.31;5016711;28;20057;-61
2021/07/19 08:43:48;;;;;;;7.82;4.93;;;;;;;40.29;21.01;93742.28;5016698;28;20061;-61
2021/07/19 08:46:16;;;;;;;6.50;4.82;;;;;;;40.93;20.64;93754.41;4999244;28;20045;-62
2021/07/19 08:48:45;;;;;;;7.68;4.85;;;;;;;41.18;19.77;93747.19;5016400;28;20082;-58
2021/07/19 08:51:13;;;;;;;9.17;4.97;;;;;;;41.21;19.43;93745.44;5014949;28;20041;-59
2021/07/19 08:53:40;;;;;;;6.75;4.80;;;;;;;40.95;20.10;93746.44;5015755;28;20050;-57
2021/07/19 08:56:08;;;;;;;7.75;5.00;;;;;;;41.53;19.21;93745.91;4999314;28;20360;-63
2021/07/19 08:58:36;;;;;;;6.80;4.75;;;;;;;41.16;19.56;93737.97;4998643;28;20445;-66
2021/07/19 09:01:03;;;;;;;5.90;4.90;;;;;;;41.47;19.13;93737.69;5015652;28;20061;-60
2021/07/19 09:03:30;;;;;;;5.57;4.90;;;;;;;40.98;19.64;93742.69;5015361;28;20048;-63
2021/07/19 09:05:57;;;;;;;6.15;4.88;;;;;;;41.03;19.54;93737.69;5017736;28;20053;-59
2021/07/19 09:08:25;;;;;;;8.77;4.95;;;;;;;41.16;19.42;93746.19;5036249;28;20052;-62
2021/07/19 09:10:52;;;;;;;6.65;4.93;;;;;;;41.27;19.60;93727.75;5019404;28;20061;-63
2021/07/19 09:13:21;;;;;;;7.00;5.07;;;;;;;41.13;19.54;93722.50;5014102;28;20452;-64
2021/07/19 09:15:57;;;;;;;6.53;4.75;;;;;;;41.28;19.53;93733.97;5016000;28;20046;-63
2021/07/19 09:18:25;;;;;;;7.50;5.00;;;;;;;40.86;19.43;93732.97;5016231;28;20046;-65
2021/07/19 09:20:52;;;;;;;5.88;5.22;;;;;;;41.42;19.44;93732.97;5030001;28;20049;-66
2021/07/19 09:23:28;;;;;;;12.50;5.00;;;;;;;41.18;19.53;93729.97;5015141;28;20056;-65
2021/07/19 09:25:56;;;;;;;6.50;5.10;;;;;;;41.33;19.47;93730.47;5015856;28;20369;-62
2021/07/19 09:28:30;;;;;;;8.48;5.07;;;;;;;41.11;19.60;93741.44;5015325;28;20372;-62
2021/07/19 09:31:05;;;;;;;9.50;5.50;;;;;;;41.11;19.30;93731.22;5015857;28;20382;-62
2021/07/19 09:33:35;;;;;;;7.30;5.10;;;;;;;41.03;19.51;93726.75;4997787;28;20057;-58
2021/07/19 09:36:02;;;;;;;5.82;5.22;;;;;;;41.20;19.59;93719.25;5017164;28;20116;-65
2021/07/19 09:38:31;;;;;;;8.80;5.35;;;;;;;41.54;19.32;93723.47;5018181;28;20049;-58
2021/07/19 09:41:00;;;;;;;7.15;5.70;;;;;;;41.74;19.31;93729.91;5019648;28;20329;-60
2021/07/19 09:43:31;;;;;;;6.32;5.32;;;;;;;41.18;19.96;93730.72;5014539;28;20053;-64
2021/07/19 09:46:01;;;;;;;7.68;5.95;;;;;;;41.52;19.52;93736.94;5015589;28;20050;-62
2021/07/19 09:48:28;;;;;;;7.03;5.30;;;;;;;41.41;19.80;93736.97;5015203;28;20049;-63
2021/07/19 09:50:56;;;;;;;55.13;49.63;;;;;;;41.53;20.29;93727.44;5014879;28;20392;-64
2021/07/19 09:53:36;;;;;;;25.05;22.35;;;;;;;41.96;19.93;93729.84;5014075;28;20060;-65
2021/07/19 09:56:16;;;;;;;16.17;14.52;;;;;;;41.79;19.55;93720.91;5014745;28;20050;-64
2021/07/19 09:58:48;;;;;;;10.10;8.38;;;;;;;41.74;19.38;93729.91;5014703;28;20050;-60
2021/07/19 10:01:34;;;;;;;7.65;6.60;;;;;;;41.73;19.37;93733.91;5014083;28;20050;-63
2021/07/19 10:04:14;;;;;;;9.38;6.45;;;;;;;41.43;19.81;93734.47;5014931;28;20364;-61
2021/07/19 10:06:42;;;;;;;7.77;6.20;;;;;;;41.55;19.93;93730.44;5022327;28;20045;-59
2021/07/19 10:09:11;;;;;;;9.00;6.63;;;;;;;41.45;19.74;93731.97;5016537;28;20045;-60
2021/07/19 10:11:42;;;;;;;8.82;6.47;;;;;;;41.03;19.95;93734.97;5025354;28;20049;-60
2021/07/19 10:14:10;;;;;;;8.00;6.25;;;;;;;41.16;20.43;93727.75;5014868;28;20464;-56
2021/07/19 10:16:39;;;;;;;9.02;6.18;;;;;;;41.52;19.72;93725.97;5015085;28;20052;-60
2021/07/19 10:19:06;;;;;;;6.88;6.18;;;;;;;40.95;20.28;93727.25;4993238;28;20054;-58
2021/07/19 10:21:35;;;;;;;7.18;6.25;;;;;;;40.90;19.88;93719.78;5001819;28;20046;-60
2021/07/19 10:24:07;;;;;;;8.52;6.85;;;;;;;40.55;20.10;93722.19;5010964;28;20490;-58
2021/07/19 10:26:35;;;;;;;7.40;6.57;;;;;;;40.44;20.12;93719.44;5014757;28;20056;-59
2021/07/19 10:29:04;;;;;;;10.68;6.95;;;;;;;40.42;20.23;93725.44;5015198;28;20045;-56
2021/07/19 10:31:32;;;;;;;10.70;6.28;;;;;;;40.82;20.13;93718.75;5013259;28;20045;-62
2021/07/19 10:34:01;;;;;;;8.32;6.38;;;;;;;40.80;20.68;93709.53;5013990;28;20142;-58
2021/07/19 10:36:47;;;;;;;8.85;6.53;;;;;;;40.82;20.75;93709.78;4997374;28;20058;-55
2021/07/19 10:39:21;;;;;;;17.95;16.08;;;;;;;40.85;20.61;93704.06;5013805;28;20643;-57
2021/07/19 10:42:09;;;;;;;20.98;18.92;;;;;;;40.81;20.84;93709.06;5013658;28;20057;-57
2021/07/19 10:44:43;;;;;;;9.30;7.93;;;;;;;40.94;20.77;93695.63;5013464;28;20176;-60
2021/07/19 10:47:22;;;;;;;11.93;8.15;;;;;;;40.58;22.08;93697.31;4993437;28;20081;-58
2021/07/19 10:49:59;;;;;;;11.48;8.15;;;;;;;39.38;22.56;93700.56;5001698;28;20050;-60
2021/07/19 10:52:35;;;;;;;14.20;7.68;;;;;;;40.33;22.01;93690.75;5012511;28;20042;-58
2021/07/19 10:55:02;;;;;;;10.02;7.07;;;;;;;40.76;21.50;93690.59;5008611;28;20134;-64
2021/07/19 10:57:42;;;;;;;13.07;8.38;;;;;;;40.91;21.76;93677.44;4995080;28;20038;-56
2021/07/19 11:00:13;;;;;;;9.68;7.35;;;;;;;39.65;21.47;93674.63;4995097;28;20460;-61
2021/07/19 11:02:40;;;;;;;10.45;7.10;;;;;;;39.63;21.14;93672.38;5012955;28;20053;-59
2021/07/19 11:05:09;;;;;;;8.65;7.18;;;;;;;40.10;20.70;93667.34;4997104;28;20425;-60
2021/07/19 11:07:43;;;;;;;7.75;6.80;;;;;;;39.82;21.02;93661.00;5014315;28;20440;-57
2021/07/19 11:10:15;;;;;;;9.45;7.38;;;;;;;39.81;21.12;93659.50;5013787;28;20054;-57
2021/07/19 11:12:54;;;;;;;10.52;7.68;;;;;;;39.75;21.30;93662.22;5014057;28;20046;-59
2021/07/19 11:15:31;;;;;;;12.73;7.10;;;;;;;40.31;20.70;93662.41;5013034;28;20065;-66
2021/07/19 11:17:58;;;;;;;8.57;7.13;;;;;;;39.95;21.10;93662.06;5013456;28;20082;-55
2021/07/19 11:20:25;;;;;;;11.68;7.13;;;;;;;40.26;20.72;93666.63;5013099;28;20049;-58
2021/07/19 11:23:01;;;;;;;9.15;6.93;;;;;;;39.97;20.83;93661.59;5013076;28;20049;-57
2021/07/19 11:25:42;;;;;;;9.95;7.38;;;;;;;40.28;20.90;93655.91;5014362;28;20058;-58
2021/07/19 11:28:24;;;;;;;10.13;8.10;;;;;;;40.21;20.62;93647.47;5014166;28;20056;-56
2021/07/19 11:31:18;;;;;;;9.50;7.70;;;;;;;40.12;20.71;93648.44;4990921;28;20407;-57
2021/07/19 11:33:49;;;;;;;9.63;7.35;;;;;;;40.38;20.45;93639.31;5012884;28;20052;-56
2021/07/19 11:36:22;;;;;;;9.32;7.65;;;;;;;40.56;19.98;93644.28;4991182;28;20057;-57
2021/07/19 11:38:52;;;;;;;14.52;8.52;;;;;;;40.67;19.84;93638.81;4994675;28;20050;-62
2021/07/19 11:41:22;;;;;;;10.18;7.53;;;;;;;40.73;20.33;93634.06;5000746;28;20054;-61
2021/07/19 11:43:52;;;;;;;9.98;8.15;;;;;;;40.68;20.07;93623.88;5012755;28;20053;-51
2021/07/19 11:46:45;;;;;;;11.68;8.18;;;;;;;40.69;20.28;93625.38;5001398;28;20054;-54